createdAt,value
2018-06-30T00:01:10.957Z,20.00
2018-06-30T00:03:44.547Z,19.90
2018-06-30T00:06:12.804Z,19.80
2018-06-30T00:08:41.072Z,19.90
2018-06-30T00:11:09.316Z,19.90
2018-06-30T00:13:37.560Z,19.80
2018-06-30T00:16:05.822Z,19.70
2018-06-30T00:18:34.063Z,19.70
2018-06-30T00:21:02.569Z,19.70
2018-06-30T00:23:31.448Z,19.60
2018-06-30T00:25:59.665Z,19.60
2018-06-30T00:28:27.899Z,19.60
2018-06-30T00:30:56.247Z,19.60
2018-06-30T00:33:24.564Z,19.50
2018-06-30T00:35:52.796Z,19.40
2018-06-30T00:38:21.166Z,19.40
2018-06-30T00:40:49.316Z,19.40
2018-06-30T00:43:17.612Z,19.30
2018-06-30T00:45:45.920Z,19.30
2018-06-30T00:48:14.242Z,19.30
2018-06-30T00:50:42.608Z,19.30
2018-06-30T00:53:11.010Z,19.30
2018-06-30T00:55:39.279Z,19.30
2018-06-30T00:58:08.359Z,19.30
2018-06-30T01:00:36.703Z,19.30
2018-06-30T01:03:04.975Z,19.40
2018-06-30T01:05:33.243Z,19.50
2018-06-30T01:08:01.467Z,19.50
2018-06-30T01:10:29.703Z,19.60
2018-06-30T01:12:58.040Z,19.60
2018-06-30T01:15:26.309Z,19.70
2018-06-30T01:17:54.528Z,19.70
2018-06-30T01:20:22.923Z,19.70
2018-06-30T01:22:51.382Z,19.70
2018-06-30T01:25:19.655Z,19.60
2018-06-30T01:27:48.207Z,19.70
2018-06-30T01:30:16.407Z,19.60
2018-06-30T01:32:44.622Z,19.50
2018-06-30T01:35:12.862Z,19.40
2018-06-30T01:37:41.180Z,19.30
2018-06-30T01:40:09.589Z,19.30
2018-06-30T01:42:37.810Z,19.30
2018-06-30T01:45:06.348Z,19.30
2018-06-30T01:47:34.632Z,19.30
2018-06-30T01:50:02.844Z,19.30
2018-06-30T01:52:31.732Z,19.30
2018-06-30T01:54:59.979Z,19.30
2018-06-30T01:57:28.555Z,19.20
2018-06-30T01:59:56.821Z,19.20
2018-06-30T02:02:25.089Z,19.20
2018-06-30T02:04:53.291Z,19.10
2018-06-30T02:07:23.348Z,19.00
2018-06-30T02:09:51.629Z,19.00
2018-06-30T02:12:19.859Z,19.00
2018-06-30T02:14:48.056Z,18.90
2018-06-30T02:17:16.295Z,18.80
2018-06-30T02:19:44.499Z,18.70
2018-06-30T02:22:12.780Z,18.70
2018-06-30T02:24:41.027Z,18.70
2018-06-30T02:27:09.941Z,18.70
2018-06-30T02:29:38.215Z,18.70
2018-06-30T02:32:06.454Z,18.70
2018-06-30T02:34:34.662Z,18.60
2018-06-30T02:37:02.898Z,18.60
2018-06-30T02:39:31.492Z,18.50
2018-06-30T02:41:59.746Z,18.50
2018-06-30T02:44:28.004Z,18.50
2018-06-30T02:46:56.295Z,18.50
2018-06-30T02:49:24.736Z,18.50
2018-06-30T02:51:53.135Z,18.50
2018-06-30T02:54:21.352Z,18.50
2018-06-30T02:56:49.639Z,18.30
2018-06-30T02:59:19.776Z,18.20
2018-06-30T03:01:48.030Z,18.10
2018-06-30T03:04:16.305Z,18.10
2018-06-30T03:06:44.509Z,18.00
2018-06-30T03:09:12.778Z,17.90
2018-06-30T03:11:41.115Z,17.90
2018-06-30T03:14:09.337Z,17.80
2018-06-30T03:16:37.561Z,17.80
2018-06-30T03:19:05.787Z,17.80
2018-06-30T03:21:34.552Z,17.80
2018-06-30T03:24:02.787Z,17.70
2018-06-30T03:26:32.101Z,17.70
2018-06-30T03:29:00.351Z,17.70
2018-06-30T03:31:28.660Z,17.70
2018-06-30T03:33:56.835Z,17.80
2018-06-30T03:36:25.156Z,17.80
2018-06-30T03:38:53.863Z,17.80
2018-06-30T03:41:22.538Z,17.80
2018-06-30T03:43:51.163Z,17.90
2018-06-30T03:46:19.624Z,18.00
2018-06-30T03:48:47.807Z,18.00
2018-06-30T03:51:16.131Z,18.10
2018-06-30T03:53:44.334Z,18.10
2018-06-30T03:56:12.594Z,18.10
2018-06-30T03:58:40.804Z,18.00
2018-06-30T04:01:09.064Z,18.10
2018-06-30T04:03:37.251Z,18.10
2018-06-30T04:06:05.484Z,18.20
2018-06-30T04:08:34.471Z,18.20
2018-06-30T04:11:02.785Z,18.30
2018-06-30T04:13:31.023Z,18.30
2018-06-30T04:15:59.309Z,18.30
2018-06-30T04:18:27.558Z,18.40
2018-06-30T04:20:55.990Z,18.40
2018-06-30T04:23:24.254Z,18.40
2018-06-30T04:25:52.504Z,18.50
2018-06-30T04:28:20.752Z,18.50
2018-06-30T04:30:49.068Z,18.50
2018-06-30T04:33:17.343Z,18.60
2018-06-30T04:35:45.910Z,18.70
2018-06-30T04:38:14.188Z,18.70
2018-06-30T04:40:42.420Z,18.80
2018-06-30T04:43:10.675Z,18.90
2018-06-30T04:45:38.930Z,19.40
2018-06-30T04:48:07.812Z,20.70
2018-06-30T04:50:36.024Z,21.90
2018-06-30T04:55:32.239Z,23.90
2018-06-30T04:58:00.452Z,24.70
2018-06-30T05:00:29.513Z,25.30
2018-06-30T05:02:57.774Z,25.70
2018-06-30T05:05:26.107Z,25.90
2018-06-30T05:07:54.660Z,26.30
2018-06-30T05:10:22.923Z,26.90
2018-06-30T05:12:51.209Z,27.20
2018-06-30T05:15:21.076Z,27.50
2018-06-30T05:17:49.393Z,28.00
2018-06-30T05:20:18.458Z,28.30
2018-06-30T05:22:46.687Z,28.40
2018-06-30T05:25:16.659Z,28.60
2018-06-30T05:27:45.297Z,28.80
2018-06-30T05:30:13.535Z,28.80
2018-06-30T05:32:41.749Z,28.60
2018-06-30T05:35:09.968Z,28.40
2018-06-30T05:37:38.246Z,28.20
2018-06-30T05:40:06.462Z,28.40
2018-06-30T05:42:34.671Z,28.10
2018-06-30T05:45:02.955Z,28.10
2018-06-30T05:47:31.234Z,28.00
2018-06-30T05:49:59.501Z,28.10
2018-06-30T05:52:27.683Z,28.30
2018-06-30T05:54:55.975Z,28.30
2018-06-30T05:57:24.228Z,28.00
2018-06-30T05:59:52.456Z,28.10
2018-06-30T06:02:20.682Z,28.60
2018-06-30T06:04:48.922Z,29.10
2018-06-30T06:07:17.211Z,29.50
2018-06-30T06:09:45.597Z,29.60
2018-06-30T06:12:13.672Z,29.50
2018-06-30T06:14:42.944Z,29.20
2018-06-30T06:17:11.273Z,29.30
2018-06-30T06:19:39.492Z,29.00
2018-06-30T06:22:07.735Z,29.00
2018-06-30T06:24:36.027Z,28.80
2018-06-30T06:27:04.324Z,28.80
2018-06-30T06:29:32.584Z,28.70
2018-06-30T06:32:00.839Z,29.10
2018-06-30T06:34:29.063Z,29.40
2018-06-30T06:36:57.333Z,29.80
2018-06-30T06:39:25.607Z,30.10
2018-06-30T06:41:53.835Z,30.30
2018-06-30T06:44:22.912Z,30.60
2018-06-30T06:46:51.363Z,30.80
2018-06-30T06:49:19.642Z,30.60
2018-06-30T06:51:47.850Z,30.00
2018-06-30T06:54:16.060Z,29.70
2018-06-30T06:56:44.303Z,29.70
2018-06-30T06:59:12.543Z,29.60
2018-06-30T07:01:40.814Z,29.60
2018-06-30T07:04:09.115Z,30.10
2018-06-30T07:06:37.299Z,29.90
2018-06-30T07:09:08.138Z,30.10
2018-06-30T07:11:36.508Z,30.90
2018-06-30T07:14:04.759Z,31.00
2018-06-30T07:16:33.027Z,31.10
2018-06-30T07:19:01.323Z,31.20
2018-06-30T07:21:29.557Z,30.60
2018-06-30T07:23:57.937Z,29.70
2018-06-30T07:26:26.249Z,30.10
2018-06-30T07:28:54.803Z,30.30
2018-06-30T07:31:23.000Z,30.60
2018-06-30T07:33:51.317Z,30.10
2018-06-30T07:36:19.628Z,29.80
2018-06-30T07:38:47.931Z,29.60
2018-06-30T07:41:18.140Z,28.60
2018-06-30T07:43:46.392Z,28.50
2018-06-30T07:46:14.658Z,28.30
2018-06-30T07:48:42.935Z,28.60
2018-06-30T07:51:11.379Z,28.40
2018-06-30T07:53:39.630Z,28.60
2018-06-30T07:56:07.938Z,29.20
2018-06-30T07:58:36.342Z,29.40
2018-06-30T08:01:04.563Z,29.40
2018-06-30T08:06:01.469Z,30.00
2018-06-30T08:08:29.736Z,30.30
2018-06-30T08:10:57.983Z,30.30
2018-06-30T08:13:26.219Z,30.70
2018-06-30T08:15:54.526Z,31.60
2018-06-30T08:18:22.889Z,31.80
2018-06-30T08:20:51.361Z,31.50
2018-06-30T08:23:20.136Z,31.00
2018-06-30T08:25:48.407Z,30.80
2018-06-30T08:28:16.636Z,29.80
2018-06-30T08:30:45.304Z,30.20
2018-06-30T08:33:13.530Z,29.90
2018-06-30T08:35:41.828Z,29.80
2018-06-30T08:38:10.055Z,29.70
2018-06-30T08:40:38.273Z,30.10
2018-06-30T08:43:06.528Z,30.50
2018-06-30T08:45:34.840Z,30.80
2018-06-30T08:48:03.423Z,31.30
2018-06-30T08:50:31.675Z,31.80
2018-06-30T08:52:59.852Z,31.70
2018-06-30T08:55:28.875Z,31.20
2018-06-30T08:57:57.074Z,31.20
2018-06-30T09:00:25.271Z,31.20
2018-06-30T09:02:53.510Z,31.00
2018-06-30T09:05:21.801Z,31.10
2018-06-30T09:07:49.995Z,31.00
2018-06-30T09:10:18.219Z,31.10
2018-06-30T09:12:46.480Z,31.20
2018-06-30T09:15:14.727Z,31.40
2018-06-30T09:17:43.271Z,31.70
2018-06-30T09:20:11.496Z,32.10
2018-06-30T09:22:39.744Z,32.30
2018-06-30T09:25:07.981Z,32.60
2018-06-30T09:27:36.221Z,32.40
2018-06-30T09:30:06.132Z,32.10
2018-06-30T09:32:34.327Z,31.60
2018-06-30T09:35:02.556Z,31.30
2018-06-30T09:37:31.704Z,31.30
2018-06-30T09:40:00.416Z,31.50
2018-06-30T09:42:28.595Z,31.50
2018-06-30T09:44:56.887Z,31.90
2018-06-30T09:47:25.152Z,32.10
2018-06-30T09:49:53.361Z,32.20
2018-06-30T09:52:22.035Z,32.10
2018-06-30T09:54:50.242Z,31.70
2018-06-30T09:57:18.622Z,32.10
2018-06-30T09:59:47.077Z,32.00
2018-06-30T10:02:17.305Z,32.10
2018-06-30T10:04:45.938Z,31.90
2018-06-30T10:07:14.148Z,31.60
2018-06-30T10:09:43.818Z,31.10
2018-06-30T10:12:12.075Z,31.30
2018-06-30T10:14:40.346Z,31.90
2018-06-30T10:17:08.772Z,32.20
2018-06-30T10:19:37.016Z,32.70
2018-06-30T10:22:05.532Z,32.80
2018-06-30T10:24:35.339Z,33.00
2018-06-30T10:27:03.743Z,33.30
2018-06-30T10:29:32.884Z,33.40
2018-06-30T10:32:01.148Z,33.70
2018-06-30T10:34:29.529Z,34.20
2018-06-30T10:36:57.727Z,34.00
2018-06-30T10:39:25.989Z,33.40
2018-06-30T10:41:54.260Z,33.40
2018-06-30T10:44:22.587Z,33.70
2018-06-30T10:46:50.856Z,33.60
2018-06-30T10:49:19.131Z,33.50
2018-06-30T10:51:47.344Z,33.30
2018-06-30T10:54:15.613Z,33.70
2018-06-30T10:56:43.934Z,33.80
2018-06-30T10:59:12.171Z,33.30
2018-06-30T11:01:40.499Z,33.30
2018-06-30T11:04:08.838Z,33.40
2018-06-30T11:06:37.055Z,33.70
2018-06-30T11:09:08.739Z,33.80
2018-06-30T11:11:37.247Z,33.50
2018-06-30T11:14:05.431Z,33.20
2018-06-30T11:16:33.689Z,32.60
2018-06-30T11:19:01.976Z,32.50
2018-06-30T11:21:30.198Z,32.40
2018-06-30T11:23:58.554Z,32.80
2018-06-30T11:26:27.316Z,32.80
2018-06-30T11:28:56.322Z,32.90
2018-06-30T11:31:24.584Z,32.90
2018-06-30T11:33:53.488Z,32.50
2018-06-30T11:36:21.707Z,32.80
2018-06-30T11:38:49.989Z,32.90
2018-06-30T11:41:18.880Z,32.70
2018-06-30T11:43:47.190Z,32.60
2018-06-30T11:46:15.695Z,32.40
2018-06-30T11:48:44.054Z,32.40
2018-06-30T11:51:12.641Z,32.10
2018-06-30T11:53:40.867Z,31.70
2018-06-30T11:56:09.089Z,31.90
2018-06-30T11:58:37.513Z,32.10
2018-06-30T12:01:06.535Z,31.70
2018-06-30T12:03:34.846Z,31.50
2018-06-30T12:06:03.015Z,31.60
2018-06-30T12:08:31.261Z,31.70
2018-06-30T12:11:00.297Z,31.90
2018-06-30T12:13:28.542Z,31.90
2018-06-30T12:15:56.794Z,32.00
2018-06-30T12:18:25.056Z,31.90
2018-06-30T12:20:53.318Z,32.10
2018-06-30T12:23:21.514Z,32.00
2018-06-30T12:25:49.766Z,32.40
2018-06-30T12:28:17.995Z,32.50
2018-06-30T12:30:46.299Z,32.70
2018-06-30T12:33:15.078Z,32.40
2018-06-30T12:35:43.836Z,32.00
2018-06-30T12:38:12.992Z,31.80
2018-06-30T12:40:41.339Z,31.80
2018-06-30T12:43:09.798Z,32.10
2018-06-30T12:45:38.048Z,32.60
2018-06-30T12:48:06.896Z,32.60
2018-06-30T12:50:35.185Z,32.30
2018-06-30T12:55:37.127Z,31.90
2018-06-30T12:58:06.303Z,31.90
2018-06-30T13:00:34.516Z,31.80
2018-06-30T13:03:04.017Z,32.00
2018-06-30T13:05:32.359Z,32.20
2018-06-30T13:08:00.608Z,32.20
2018-06-30T13:10:28.852Z,32.20
2018-06-30T13:12:57.131Z,32.10
2018-06-30T13:15:25.400Z,31.70
2018-06-30T13:17:53.900Z,31.70
2018-06-30T13:20:22.139Z,31.70
2018-06-30T13:22:50.331Z,31.50
2018-06-30T13:25:18.567Z,31.70
2018-06-30T13:27:46.899Z,31.90
2018-06-30T13:30:15.107Z,31.90
2018-06-30T13:32:43.387Z,32.10
2018-06-30T13:35:12.551Z,32.10
2018-06-30T13:37:40.755Z,32.40
2018-06-30T13:40:09.005Z,32.40
2018-06-30T13:42:37.200Z,32.60
2018-06-30T13:45:06.752Z,32.70
2018-06-30T13:47:35.006Z,32.50
2018-06-30T13:50:03.290Z,32.30
2018-06-30T13:52:31.928Z,32.30
2018-06-30T13:55:00.178Z,32.10
2018-06-30T13:57:28.427Z,32.20
2018-06-30T13:59:56.723Z,32.60
2018-06-30T14:02:25.017Z,32.90
2018-06-30T14:04:53.259Z,32.90
2018-06-30T14:07:21.512Z,32.90
2018-06-30T14:09:49.718Z,33.00
2018-06-30T14:12:18.256Z,33.40
2018-06-30T14:14:46.491Z,33.80
2018-06-30T14:17:14.737Z,33.80
2018-06-30T14:22:10.979Z,34.70
2018-06-30T14:24:39.315Z,34.50
2018-06-30T14:27:07.611Z,34.70
2018-06-30T14:29:35.851Z,34.50
2018-06-30T14:32:04.097Z,35.20
2018-06-30T14:34:32.359Z,34.80
2018-06-30T14:37:00.577Z,34.50
2018-06-30T14:39:29.705Z,34.90
2018-06-30T14:41:57.965Z,35.60
2018-06-30T14:44:28.885Z,35.40
2018-06-30T14:46:57.349Z,35.30
2018-06-30T14:49:25.596Z,35.10
2018-06-30T14:51:53.859Z,35.20
2018-06-30T14:54:22.135Z,34.80
2018-06-30T14:56:51.006Z,35.00
2018-06-30T14:59:20.523Z,35.20
2018-06-30T15:01:49.957Z,35.50
2018-06-30T15:04:18.403Z,35.70
2018-06-30T15:06:46.691Z,36.00
2018-06-30T15:09:15.851Z,36.20
2018-06-30T15:11:45.079Z,36.50
2018-06-30T15:14:14.363Z,36.80
2018-06-30T15:16:42.719Z,36.80
2018-06-30T15:19:11.608Z,36.50
2018-06-30T15:21:39.839Z,36.20
2018-06-30T15:24:08.863Z,36.10
2018-06-30T15:26:37.091Z,36.00
2018-06-30T15:29:05.495Z,36.30
2018-06-30T15:31:33.907Z,36.50
2018-06-30T15:34:02.143Z,36.70
2018-06-30T15:36:30.474Z,36.70
2018-06-30T15:38:58.749Z,36.10
2018-06-30T15:41:27.007Z,36.20
2018-06-30T15:43:55.248Z,36.10
2018-06-30T15:46:28.396Z,36.70
2018-06-30T15:48:57.083Z,36.80
2018-06-30T15:51:25.340Z,37.10
2018-06-30T15:53:53.656Z,37.40
2018-06-30T15:56:21.907Z,37.20
2018-06-30T15:58:50.132Z,36.60
2018-06-30T16:01:18.662Z,35.80
2018-06-30T16:03:46.970Z,35.30
2018-06-30T16:06:15.903Z,35.30
2018-06-30T16:08:44.116Z,35.40
2018-06-30T16:11:12.612Z,35.30
2018-06-30T16:13:40.991Z,35.40
2018-06-30T16:16:09.261Z,35.40
2018-06-30T16:18:37.743Z,35.50
2018-06-30T16:21:05.968Z,35.80
2018-06-30T16:23:34.219Z,35.90
2018-06-30T16:26:02.500Z,36.00
2018-06-30T16:28:30.737Z,35.60
2018-06-30T16:30:58.964Z,35.30
2018-06-30T16:33:27.306Z,34.90
2018-06-30T16:35:55.579Z,34.70
2018-06-30T16:38:23.864Z,34.30
2018-06-30T16:40:52.120Z,34.50
2018-06-30T16:43:20.404Z,34.60
2018-06-30T16:45:48.870Z,35.10
2018-06-30T16:48:17.128Z,35.20
2018-06-30T16:50:45.420Z,35.20
2018-06-30T16:53:13.641Z,34.90
2018-06-30T16:55:41.907Z,34.40
2018-06-30T16:58:10.599Z,34.10
2018-06-30T17:00:38.866Z,34.30
2018-06-30T17:03:08.182Z,33.90
2018-06-30T17:05:36.611Z,33.00
2018-06-30T17:08:04.856Z,32.70
2018-06-30T17:10:33.113Z,32.50
2018-06-30T17:13:01.437Z,32.10
2018-06-30T17:15:29.676Z,31.50
2018-06-30T17:17:57.955Z,31.20
2018-06-30T17:20:26.166Z,31.00
2018-06-30T17:22:54.835Z,31.00
2018-06-30T17:25:23.095Z,30.70
2018-06-30T17:27:51.838Z,30.30
2018-06-30T17:30:20.071Z,29.80
2018-06-30T17:32:48.326Z,29.70
2018-06-30T17:35:16.634Z,29.80
2018-06-30T17:37:45.082Z,29.50
2018-06-30T17:40:13.354Z,29.00
2018-06-30T17:45:09.949Z,28.20
2018-06-30T17:47:38.363Z,27.90
2018-06-30T17:50:06.722Z,27.60
2018-06-30T17:52:34.914Z,27.40
2018-06-30T17:55:03.180Z,27.30
2018-06-30T17:57:31.444Z,27.20
2018-06-30T17:59:59.714Z,27.10
2018-06-30T18:02:27.961Z,26.90
2018-06-30T18:04:56.223Z,26.80
2018-06-30T18:07:24.494Z,26.70
2018-06-30T18:09:52.994Z,26.60
2018-06-30T18:12:21.660Z,26.50
2018-06-30T18:14:49.908Z,26.40
2018-06-30T18:17:18.113Z,26.30
2018-06-30T18:19:46.295Z,26.20
2018-06-30T18:22:14.587Z,26.10
2018-06-30T18:24:42.912Z,26.00
2018-06-30T18:27:11.213Z,25.80
2018-06-30T18:29:39.479Z,25.70
2018-06-30T18:32:08.031Z,25.60
2018-06-30T18:34:36.303Z,25.40
2018-06-30T18:37:04.755Z,25.30
2018-06-30T18:39:32.997Z,25.10
2018-06-30T18:42:01.287Z,24.80
2018-06-30T18:44:29.555Z,24.80
2018-06-30T18:46:57.887Z,24.60
2018-06-30T18:49:26.136Z,24.50
2018-06-30T18:51:54.545Z,24.50
2018-06-30T18:54:22.823Z,24.40
2018-06-30T18:56:51.070Z,24.30
2018-06-30T18:59:19.311Z,24.10
2018-06-30T19:01:47.541Z,24.00
2018-06-30T19:04:16.033Z,23.90
2018-06-30T19:06:44.320Z,23.80
2018-06-30T19:09:12.775Z,23.70
2018-06-30T19:11:41.139Z,23.50
2018-06-30T19:14:09.723Z,23.40
2018-06-30T19:16:38.044Z,23.30
2018-06-30T19:19:06.297Z,23.10
2018-06-30T19:21:34.544Z,23.00
2018-06-30T19:24:02.767Z,22.90
2018-06-30T19:26:31.019Z,22.70
2018-06-30T19:28:59.268Z,22.60
2018-06-30T19:31:27.572Z,22.50
2018-06-30T19:33:55.831Z,22.40
2018-06-30T19:36:24.050Z,22.30
2018-06-30T19:38:52.323Z,22.30
2018-06-30T19:41:20.648Z,22.20
2018-06-30T19:43:49.088Z,22.00
2018-06-30T19:46:17.524Z,22.00
2018-06-30T19:48:45.771Z,21.90
2018-06-30T19:51:14.024Z,21.70
2018-06-30T19:53:43.017Z,21.50
2018-06-30T19:56:11.356Z,21.40
2018-06-30T19:58:39.623Z,21.20
2018-06-30T20:01:07.901Z,21.20
2018-06-30T20:03:36.948Z,21.10
2018-06-30T20:06:05.169Z,21.00
2018-06-30T20:08:33.375Z,20.90
2018-06-30T20:11:01.895Z,20.80
2018-06-30T20:13:30.199Z,20.80
2018-06-30T20:15:58.443Z,20.70
2018-06-30T20:18:26.635Z,20.70
2018-06-30T20:20:54.991Z,20.60
2018-06-30T20:23:23.162Z,20.60
2018-06-30T20:25:51.456Z,20.60
2018-06-30T20:28:19.873Z,20.50
2018-06-30T20:30:47.953Z,20.50
2018-06-30T20:33:16.287Z,20.30
2018-06-30T20:35:44.488Z,20.20
2018-06-30T20:38:12.877Z,20.00
2018-06-30T20:40:41.147Z,19.90
2018-06-30T20:43:09.402Z,19.80
2018-06-30T20:45:37.671Z,19.80
2018-06-30T20:48:05.935Z,19.80
2018-06-30T20:50:34.151Z,19.80
2018-06-30T20:53:02.767Z,19.70
2018-06-30T20:55:31.027Z,19.60
2018-06-30T20:57:59.282Z,19.60
2018-06-30T21:00:27.497Z,19.60
2018-06-30T21:02:55.690Z,19.50
2018-06-30T21:05:23.982Z,19.40
2018-06-30T21:07:53.047Z,19.30
2018-06-30T21:10:21.275Z,19.20
2018-06-30T21:12:49.496Z,19.10
2018-06-30T21:15:17.755Z,19.00
2018-06-30T21:17:45.965Z,19.00
2018-06-30T21:20:16.583Z,18.90
2018-06-30T21:22:45.308Z,18.80
2018-06-30T21:25:13.515Z,18.70
2018-06-30T21:27:41.781Z,18.60
2018-06-30T21:30:10.174Z,18.50
2018-06-30T21:32:38.370Z,18.40
2018-06-30T21:35:06.979Z,18.30
2018-06-30T21:37:35.710Z,18.20
2018-06-30T21:40:03.928Z,18.20
2018-06-30T21:42:32.506Z,18.10
2018-06-30T21:45:00.778Z,18.00
2018-06-30T21:47:29.004Z,18.00
2018-06-30T21:49:57.300Z,18.00
2018-06-30T21:52:25.594Z,18.00
2018-06-30T21:54:53.823Z,17.90
2018-06-30T21:57:22.117Z,17.90
2018-06-30T21:59:50.558Z,17.70
2018-06-30T22:02:19.324Z,17.70
2018-06-30T22:04:47.678Z,17.60
2018-06-30T22:07:15.915Z,17.50
2018-06-30T22:09:44.171Z,17.50
2018-06-30T22:12:12.439Z,17.60
2018-06-30T22:14:40.648Z,17.60
2018-06-30T22:17:09.635Z,17.60
2018-06-30T22:19:37.931Z,17.50
2018-06-30T22:22:06.579Z,17.50
2018-06-30T22:24:35.431Z,17.50
2018-06-30T22:27:03.697Z,17.50
2018-06-30T22:29:31.970Z,17.40
2018-06-30T22:32:00.214Z,17.30
2018-06-30T22:34:28.430Z,17.20
2018-06-30T22:36:56.768Z,17.30
2018-06-30T22:40:36.170Z,17.30
2018-06-30T22:43:04.753Z,17.20
2018-06-30T22:45:33.010Z,17.10
2018-06-30T22:48:01.277Z,17.00
2018-06-30T22:50:29.543Z,16.90
2018-06-30T22:52:57.783Z,16.90
2018-06-30T22:55:26.987Z,16.90
2018-06-30T22:57:55.677Z,16.80
2018-06-30T23:00:23.910Z,16.70
2018-06-30T23:02:52.123Z,16.50
2018-06-30T23:05:20.775Z,16.40
2018-06-30T23:07:49.008Z,16.40
2018-06-30T23:10:17.336Z,16.30
2018-06-30T23:12:45.609Z,16.30
2018-06-30T23:15:13.839Z,16.20
2018-06-30T23:17:42.052Z,16.20
2018-06-30T23:20:10.279Z,16.20
2018-06-30T23:22:52.563Z,16.10
2018-06-30T23:25:20.802Z,16.20
2018-06-30T23:27:49.035Z,16.20
2018-06-30T23:30:17.883Z,16.20
2018-06-30T23:32:46.115Z,16.10
2018-06-30T23:35:14.364Z,16.00
2018-06-30T23:37:42.855Z,15.90
2018-06-30T23:40:11.120Z,15.90
2018-06-30T23:42:39.375Z,15.80
2018-06-30T23:45:07.631Z,15.70
2018-06-30T23:47:35.872Z,15.70
2018-06-30T23:50:04.160Z,15.60
2018-06-30T23:52:32.425Z,15.40
2018-06-30T23:55:00.655Z,15.50
2018-06-30T23:57:28.895Z,15.40
2018-06-30T23:59:57.159Z,15.30
